sensor_id;sensor_type;location;lat;lon;timestamp;temperature;humidity
17423;DHT22;8829;47.932;7.810;2023-08-30T00:01:04;12.60;99.90
17423;DHT22;8829;47.932;7.810;2023-08-30T00:03:31;12.50;99.90
17423;DHT22;8829;47.932;7.810;2023-08-30T00:06:02;12.50;99.90
17423;DHT22;8829;47.932;7.810;2023-08-30T00:08:29;12.30;99.90
17423;DHT22;8829;47.932;7.810;2023-08-30T00:10:56;12.40;99.90
17423;DHT22;8829;47.932;7.810;2023-08-30T00:13:25;12.50;99.90
17423;DHT22;8829;47.932;7.810;2023-08-30T00:15:52;12.40;99.90
17423;DHT22;8829;47.932;7.810;2023-08-30T00:18:18;12.30;99.90
17423;DHT22;8829;47.932;7.810;2023-08-30T00:20:45;12.30;99.90
17423;DHT22;8829;47.932;7.810;2023-08-30T00:23:12;12.40;99.90
17423;DHT22;8829;47.932;7.810;2023-08-30T00:25:38;12.50;99.90
17423;DHT22;8829;47.932;7.810;2023-08-30T00:28:05;12.50;99.90
17423;DHT22;8829;47.932;7.810;2023-08-30T00:30:33;12.50;99.90
17423;DHT22;8829;47.932;7.810;2023-08-30T00:33:00;12.50;99.90
17423;DHT22;8829;47.932;7.810;2023-08-30T00:35:27;12.50;99.90
17423;DHT22;8829;47.932;7.810;2023-08-30T00:37:54;12.40;99.90
17423;DHT22;8829;47.932;7.810;2023-08-30T00:40:23;12.40;99.90
17423;DHT22;8829;47.932;7.810;2023-08-30T00:42:49;12.40;99.90
17423;DHT22;8829;47.932;7.810;2023-08-30T00:45:16;12.40;99.90
17423;DHT22;8829;47.932;7.810;2023-08-30T00:47:45;12.10;99.90
17423;DHT22;8829;47.932;7.810;2023-08-30T00:50:12;12.30;99.90
17423;DHT22;8829;47.932;7.810;2023-08-30T00:52:40;12.20;99.90
17423;DHT22;8829;47.932;7.810;2023-08-30T00:55:08;12.20;99.90
17423;DHT22;8829;47.932;7.810;2023-08-30T00:57:34;11.90;99.90
17423;DHT22;8829;47.932;7.810;2023-08-30T01:00:02;12.20;99.90
17423;DHT22;8829;47.932;7.810;2023-08-30T01:02:31;12.20;99.90
17423;DHT22;8829;47.932;7.810;2023-08-30T01:04:59;12.10;99.90
17423;DHT22;8829;47.932;7.810;2023-08-30T01:09:53;12.10;99.90
17423;DHT22;8829;47.932;7.810;2023-08-30T01:12:23;12.20;99.90
17423;DHT22;8829;47.932;7.810;2023-08-30T01:14:56;12.20;99.90
17423;DHT22;8829;47.932;7.810;2023-08-30T01:17:24;12.20;99.90
17423;DHT22;8829;47.932;7.810;2023-08-30T01:19:57;12.10;99.90
17423;DHT22;8829;47.932;7.810;2023-08-30T01:22:37;12.10;99.90
17423;DHT22;8829;47.932;7.810;2023-08-30T01:25:15;12.00;99.90
17423;DHT22;8829;47.932;7.810;2023-08-30T01:27:46;12.10;99.90
17423;DHT22;8829;47.932;7.810;2023-08-30T01:30:14;12.10;99.90
17423;DHT22;8829;47.932;7.810;2023-08-30T01:32:41;12.10;99.90
17423;DHT22;8829;47.932;7.810;2023-08-30T01:35:10;12.20;99.90
17423;DHT22;8829;47.932;7.810;2023-08-30T01:37:37;11.70;99.90
17423;DHT22;8829;47.932;7.810;2023-08-30T01:40:06;12.00;99.90
17423;DHT22;8829;47.932;7.810;2023-08-30T01:42:34;12.10;99.90
17423;DHT22;8829;47.932;7.810;2023-08-30T01:45:04;12.00;99.90
17423;DHT22;8829;47.932;7.810;2023-08-30T01:50:02;11.80;99.90
17423;DHT22;8829;47.932;7.810;2023-08-30T01:52:30;12.00;99.90
17423;DHT22;8829;47.932;7.810;2023-08-30T01:54:57;11.80;99.90
17423;DHT22;8829;47.932;7.810;2023-08-30T01:57:24;11.80;99.90
17423;DHT22;8829;47.932;7.810;2023-08-30T01:59:51;11.80;99.90
17423;DHT22;8829;47.932;7.810;2023-08-30T02:02:20;11.70;99.90
17423;DHT22;8829;47.932;7.810;2023-08-30T02:04:46;11.70;99.90
17423;DHT22;8829;47.932;7.810;2023-08-30T02:07:17;11.60;99.90
17423;DHT22;8829;47.932;7.810;2023-08-30T02:09:49;11.50;99.90
17423;DHT22;8829;47.932;7.810;2023-08-30T02:12:17;11.60;99.90
17423;DHT22;8829;47.932;7.810;2023-08-30T02:14:47;11.60;99.90
17423;DHT22;8829;47.932;7.810;2023-08-30T02:17:15;11.60;99.90
17423;DHT22;8829;47.932;7.810;2023-08-30T02:19:44;11.50;99.90
17423;DHT22;8829;47.932;7.810;2023-08-30T02:22:12;11.40;99.90
17423;DHT22;8829;47.932;7.810;2023-08-30T02:24:38;11.40;99.90
17423;DHT22;8829;47.932;7.810;2023-08-30T02:27:05;11.40;99.90
17423;DHT22;8829;47.932;7.810;2023-08-30T02:29:32;11.40;99.90
17423;DHT22;8829;47.932;7.810;2023-08-30T02:31:58;11.40;99.90
17423;DHT22;8829;47.932;7.810;2023-08-30T02:34:25;11.40;99.90
17423;DHT22;8829;47.932;7.810;2023-08-30T02:36:54;11.30;99.90
17423;DHT22;8829;47.932;7.810;2023-08-30T02:39:21;11.20;99.90
17423;DHT22;8829;47.932;7.810;2023-08-30T02:41:48;11.30;99.90
17423;DHT22;8829;47.932;7.810;2023-08-30T02:44:15;11.30;99.90
17423;DHT22;8829;47.932;7.810;2023-08-30T02:46:42;11.40;99.90
17423;DHT22;8829;47.932;7.810;2023-08-30T02:49:08;11.40;99.90
17423;DHT22;8829;47.932;7.810;2023-08-30T02:51:36;11.50;99.90
17423;DHT22;8829;47.932;7.810;2023-08-30T02:54:05;11.30;99.90
17423;DHT22;8829;47.932;7.810;2023-08-30T02:56:32;11.30;99.90
17423;DHT22;8829;47.932;7.810;2023-08-30T02:58:58;11.40;99.90
17423;DHT22;8829;47.932;7.810;2023-08-30T03:01:25;11.50;99.90
17423;DHT22;8829;47.932;7.810;2023-08-30T03:03:52;11.50;99.90
17423;DHT22;8829;47.932;7.810;2023-08-30T03:06:18;11.70;99.90
17423;DHT22;8829;47.932;7.810;2023-08-30T03:08:45;11.70;99.90
17423;DHT22;8829;47.932;7.810;2023-08-30T03:11:14;11.70;99.90
17423;DHT22;8829;47.932;7.810;2023-08-30T03:13:40;11.60;99.90
17423;DHT22;8829;47.932;7.810;2023-08-30T03:16:12;11.60;99.90
17423;DHT22;8829;47.932;7.810;2023-08-30T03:18:39;11.70;99.90
17423;DHT22;8829;47.932;7.810;2023-08-30T03:21:06;11.70;99.90
17423;DHT22;8829;47.932;7.810;2023-08-30T03:23:34;11.70;99.90
17423;DHT22;8829;47.932;7.810;2023-08-30T03:26:07;11.70;99.90
17423;DHT22;8829;47.932;7.810;2023-08-30T03:28:35;11.70;99.90
17423;DHT22;8829;47.932;7.810;2023-08-30T03:31:10;11.70;99.90
17423;DHT22;8829;47.932;7.810;2023-08-30T03:33:36;11.70;99.90
17423;DHT22;8829;47.932;7.810;2023-08-30T03:36:03;11.60;99.90
17423;DHT22;8829;47.932;7.810;2023-08-30T03:38:30;11.70;99.90
17423;DHT22;8829;47.932;7.810;2023-08-30T03:40:57;11.70;99.90
17423;DHT22;8829;47.932;7.810;2023-08-30T03:43:24;11.70;99.90
17423;DHT22;8829;47.932;7.810;2023-08-30T03:45:52;11.60;99.90
17423;DHT22;8829;47.932;7.810;2023-08-30T03:48:18;11.40;99.90
17423;DHT22;8829;47.932;7.810;2023-08-30T03:50:45;11.40;99.90
17423;DHT22;8829;47.932;7.810;2023-08-30T03:53:12;11.50;99.90
17423;DHT22;8829;47.932;7.810;2023-08-30T03:55:40;11.60;99.90
17423;DHT22;8829;47.932;7.810;2023-08-30T03:58:06;11.60;99.90
17423;DHT22;8829;47.932;7.810;2023-08-30T04:00:36;11.60;99.90
17423;DHT22;8829;47.932;7.810;2023-08-30T04:03:04;11.70;99.90
17423;DHT22;8829;47.932;7.810;2023-08-30T04:05:32;11.60;99.90
17423;DHT22;8829;47.932;7.810;2023-08-30T04:08:00;11.50;99.90
17423;DHT22;8829;47.932;7.810;2023-08-30T04:10:27;11.40;99.90
17423;DHT22;8829;47.932;7.810;2023-08-30T04:12:54;11.40;99.90
17423;DHT22;8829;47.932;7.810;2023-08-30T04:15:20;11.50;99.90
17423;DHT22;8829;47.932;7.810;2023-08-30T04:17:47;11.50;99.90
17423;DHT22;8829;47.932;7.810;2023-08-30T04:20:15;11.50;99.90
17423;DHT22;8829;47.932;7.810;2023-08-30T04:22:42;11.60;99.90
17423;DHT22;8829;47.932;7.810;2023-08-30T04:25:08;11.60;99.90
17423;DHT22;8829;47.932;7.810;2023-08-30T04:27:35;11.30;99.90
17423;DHT22;8829;47.932;7.810;2023-08-30T04:30:02;11.60;99.90
17423;DHT22;8829;47.932;7.810;2023-08-30T04:32:29;11.70;99.90
17423;DHT22;8829;47.932;7.810;2023-08-30T04:34:56;11.70;99.90
17423;DHT22;8829;47.932;7.810;2023-08-30T04:37:24;11.80;99.90
17423;DHT22;8829;47.932;7.810;2023-08-30T04:39:50;11.80;99.90
17423;DHT22;8829;47.932;7.810;2023-08-30T04:42:17;11.80;99.90
17423;DHT22;8829;47.932;7.810;2023-08-30T04:44:44;11.90;99.90
17423;DHT22;8829;47.932;7.810;2023-08-30T04:47:11;11.90;99.90
17423;DHT22;8829;47.932;7.810;2023-08-30T04:49:37;12.00;99.90
17423;DHT22;8829;47.932;7.810;2023-08-30T04:52:05;12.00;99.90
17423;DHT22;8829;47.932;7.810;2023-08-30T04:54:33;11.80;99.90
17423;DHT22;8829;47.932;7.810;2023-08-30T04:57:00;11.80;99.90
17423;DHT22;8829;47.932;7.810;2023-08-30T04:59:26;11.80;99.90
17423;DHT22;8829;47.932;7.810;2023-08-30T05:01:53;11.80;99.90
17423;DHT22;8829;47.932;7.810;2023-08-30T05:04:20;11.70;99.90
17423;DHT22;8829;47.932;7.810;2023-08-30T05:06:47;11.80;99.90
17423;DHT22;8829;47.932;7.810;2023-08-30T05:09:13;11.80;99.90
17423;DHT22;8829;47.932;7.810;2023-08-30T05:11:42;11.90;99.90
17423;DHT22;8829;47.932;7.810;2023-08-30T05:14:08;12.00;99.90
17423;DHT22;8829;47.932;7.810;2023-08-30T05:16:38;12.10;99.90
17423;DHT22;8829;47.932;7.810;2023-08-30T05:19:05;12.30;99.90
17423;DHT22;8829;47.932;7.810;2023-08-30T05:21:31;12.40;99.90
17423;DHT22;8829;47.932;7.810;2023-08-30T05:23:58;12.40;99.90
17423;DHT22;8829;47.932;7.810;2023-08-30T05:26:25;12.40;99.90
17423;DHT22;8829;47.932;7.810;2023-08-30T05:28:53;12.60;99.90
17423;DHT22;8829;47.932;7.810;2023-08-30T05:31:20;12.70;99.90
17423;DHT22;8829;47.932;7.810;2023-08-30T05:33:46;12.80;99.90
17423;DHT22;8829;47.932;7.810;2023-08-30T05:36:13;12.90;99.90
17423;DHT22;8829;47.932;7.810;2023-08-30T05:38:40;12.90;99.90
17423;DHT22;8829;47.932;7.810;2023-08-30T05:41:07;13.00;99.90
17423;DHT22;8829;47.932;7.810;2023-08-30T05:43:34;13.00;99.90
17423;DHT22;8829;47.932;7.810;2023-08-30T05:46:02;13.00;99.90
17423;DHT22;8829;47.932;7.810;2023-08-30T05:48:30;13.00;99.90
17423;DHT22;8829;47.932;7.810;2023-08-30T05:50:57;13.10;99.90
17423;DHT22;8829;47.932;7.810;2023-08-30T05:53:24;13.20;99.90
17423;DHT22;8829;47.932;7.810;2023-08-30T05:55:51;13.30;99.90
17423;DHT22;8829;47.932;7.810;2023-08-30T05:58:17;13.60;99.90
17423;DHT22;8829;47.932;7.810;2023-08-30T06:00:45;13.70;99.90
17423;DHT22;8829;47.932;7.810;2023-08-30T06:03:13;13.80;99.90
17423;DHT22;8829;47.932;7.810;2023-08-30T06:05:39;13.80;99.90
17423;DHT22;8829;47.932;7.810;2023-08-30T06:08:06;14.30;99.90
17423;DHT22;8829;47.932;7.810;2023-08-30T06:10:33;14.30;99.90
17423;DHT22;8829;47.932;7.810;2023-08-30T06:13:00;14.30;99.90
17423;DHT22;8829;47.932;7.810;2023-08-30T06:15:27;14.30;99.90
17423;DHT22;8829;47.932;7.810;2023-08-30T06:17:54;14.60;99.90
17423;DHT22;8829;47.932;7.810;2023-08-30T06:20:22;14.70;99.90
17423;DHT22;8829;47.932;7.810;2023-08-30T06:22:49;15.00;99.90
17423;DHT22;8829;47.932;7.810;2023-08-30T06:25:16;15.00;99.90
17423;DHT22;8829;47.932;7.810;2023-08-30T06:27:54;15.10;99.90
17423;DHT22;8829;47.932;7.810;2023-08-30T06:30:21;15.10;99.90
17423;DHT22;8829;47.932;7.810;2023-08-30T06:32:49;15.20;99.90
17423;DHT22;8829;47.932;7.810;2023-08-30T06:35:15;15.20;99.90
17423;DHT22;8829;47.932;7.810;2023-08-30T06:37:43;15.40;99.90
17423;DHT22;8829;47.932;7.810;2023-08-30T06:40:10;15.40;99.90
17423;DHT22;8829;47.932;7.810;2023-08-30T06:42:37;15.10;99.90
17423;DHT22;8829;47.932;7.810;2023-08-30T06:45:05;15.00;99.90
17423;DHT22;8829;47.932;7.810;2023-08-30T06:47:32;14.90;99.90
17423;DHT22;8829;47.932;7.810;2023-08-30T06:50:00;14.90;99.90
17423;DHT22;8829;47.932;7.810;2023-08-30T06:52:29;15.30;99.90
17423;DHT22;8829;47.932;7.810;2023-08-30T06:54:57;15.60;99.90
17423;DHT22;8829;47.932;7.810;2023-08-30T06:57:23;15.90;99.90
17423;DHT22;8829;47.932;7.810;2023-08-30T06:59:50;16.10;99.90
17423;DHT22;8829;47.932;7.810;2023-08-30T07:02:17;16.40;99.90
17423;DHT22;8829;47.932;7.810;2023-08-30T07:04:43;16.90;99.90
17423;DHT22;8829;47.932;7.810;2023-08-30T07:07:12;17.30;99.90
17423;DHT22;8829;47.932;7.810;2023-08-30T07:09:39;17.80;99.90
17423;DHT22;8829;47.932;7.810;2023-08-30T07:12:08;18.10;99.90
17423;DHT22;8829;47.932;7.810;2023-08-30T07:14:35;18.60;99.90
17423;DHT22;8829;47.932;7.810;2023-08-30T07:17:02;18.90;99.90
17423;DHT22;8829;47.932;7.810;2023-08-30T07:19:29;19.20;99.90
17423;DHT22;8829;47.932;7.810;2023-08-30T07:21:55;19.40;99.90
17423;DHT22;8829;47.932;7.810;2023-08-30T07:24:22;19.80;99.90
17423;DHT22;8829;47.932;7.810;2023-08-30T07:26:49;20.00;99.90
17423;DHT22;8829;47.932;7.810;2023-08-30T07:29:17;20.30;99.90
17423;DHT22;8829;47.932;7.810;2023-08-30T07:31:44;20.40;99.90
17423;DHT22;8829;47.932;7.810;2023-08-30T07:34:10;20.50;99.90
17423;DHT22;8829;47.932;7.810;2023-08-30T07:36:38;20.50;99.90
17423;DHT22;8829;47.932;7.810;2023-08-30T07:39:04;20.70;99.90
17423;DHT22;8829;47.932;7.810;2023-08-30T07:41:33;20.90;99.90
17423;DHT22;8829;47.932;7.810;2023-08-30T07:44:00;21.10;99.90
17423;DHT22;8829;47.932;7.810;2023-08-30T07:46:28;21.30;99.90
17423;DHT22;8829;47.932;7.810;2023-08-30T07:48:55;21.40;99.90
17423;DHT22;8829;47.932;7.810;2023-08-30T07:51:22;21.50;99.90
17423;DHT22;8829;47.932;7.810;2023-08-30T07:53:48;21.20;99.90
17423;DHT22;8829;47.932;7.810;2023-08-30T07:56:15;21.10;99.90
17423;DHT22;8829;47.932;7.810;2023-08-30T07:58:42;21.10;99.90
17423;DHT22;8829;47.932;7.810;2023-08-30T08:01:08;21.20;99.90
17423;DHT22;8829;47.932;7.810;2023-08-30T08:03:37;21.20;99.90
17423;DHT22;8829;47.932;7.810;2023-08-30T08:06:03;21.50;99.90
17423;DHT22;8829;47.932;7.810;2023-08-30T08:08:30;21.50;99.90
17423;DHT22;8829;47.932;7.810;2023-08-30T08:10:58;21.50;99.90
17423;DHT22;8829;47.932;7.810;2023-08-30T08:13:25;21.90;99.90
17423;DHT22;8829;47.932;7.810;2023-08-30T08:15:52;22.00;99.90
17423;DHT22;8829;47.932;7.810;2023-08-30T08:18:21;22.10;99.90
17423;DHT22;8829;47.932;7.810;2023-08-30T08:20:50;22.20;99.90
17423;DHT22;8829;47.932;7.810;2023-08-30T08:23:16;22.50;99.90
17423;DHT22;8829;47.932;7.810;2023-08-30T08:25:43;22.00;99.90
17423;DHT22;8829;47.932;7.810;2023-08-30T08:28:10;21.60;99.90
17423;DHT22;8829;47.932;7.810;2023-08-30T08:30:36;21.60;99.90
17423;DHT22;8829;47.932;7.810;2023-08-30T08:33:03;21.40;99.90
17423;DHT22;8829;47.932;7.810;2023-08-30T08:35:30;20.90;99.90
17423;DHT22;8829;47.932;7.810;2023-08-30T08:37:58;20.80;99.90
17423;DHT22;8829;47.932;7.810;2023-08-30T08:40:25;20.80;99.90
17423;DHT22;8829;47.932;7.810;2023-08-30T08:42:52;20.80;99.90
17423;DHT22;8829;47.932;7.810;2023-08-30T08:45:21;20.90;99.90
17423;DHT22;8829;47.932;7.810;2023-08-30T08:47:48;20.60;99.90
17423;DHT22;8829;47.932;7.810;2023-08-30T08:50:16;20.60;99.90
17423;DHT22;8829;47.932;7.810;2023-08-30T08:52:44;20.70;99.90
17423;DHT22;8829;47.932;7.810;2023-08-30T08:55:13;20.90;99.90
17423;DHT22;8829;47.932;7.810;2023-08-30T08:57:40;20.90;99.90
17423;DHT22;8829;47.932;7.810;2023-08-30T09:00:08;20.90;99.90
17423;DHT22;8829;47.932;7.810;2023-08-30T09:02:35;21.00;99.90
17423;DHT22;8829;47.932;7.810;2023-08-30T09:05:02;20.90;99.90
17423;DHT22;8829;47.932;7.810;2023-08-30T09:07:31;20.80;99.90
17423;DHT22;8829;47.932;7.810;2023-08-30T09:09:58;20.70;99.90
17423;DHT22;8829;47.932;7.810;2023-08-30T09:12:26;20.40;99.90
17423;DHT22;8829;47.932;7.810;2023-08-30T09:14:54;20.30;99.90
17423;DHT22;8829;47.932;7.810;2023-08-30T09:17:21;20.00;99.90
17423;DHT22;8829;47.932;7.810;2023-08-30T09:19:48;19.80;99.90
17423;DHT22;8829;47.932;7.810;2023-08-30T09:22:15;19.80;99.90
17423;DHT22;8829;47.932;7.810;2023-08-30T09:24:42;19.80;99.90
17423;DHT22;8829;47.932;7.810;2023-08-30T09:27:09;19.70;99.90
17423;DHT22;8829;47.932;7.810;2023-08-30T09:29:37;19.60;99.90
17423;DHT22;8829;47.932;7.810;2023-08-30T09:32:04;19.70;99.90
17423;DHT22;8829;47.932;7.810;2023-08-30T09:34:31;19.70;99.90
17423;DHT22;8829;47.932;7.810;2023-08-30T09:36:58;19.60;99.90
17423;DHT22;8829;47.932;7.810;2023-08-30T09:39:27;19.80;99.90
17423;DHT22;8829;47.932;7.810;2023-08-30T09:41:54;20.00;99.90
17423;DHT22;8829;47.932;7.810;2023-08-30T09:44:21;20.10;99.90
17423;DHT22;8829;47.932;7.810;2023-08-30T09:46:52;20.00;99.90
17423;DHT22;8829;47.932;7.810;2023-08-30T09:49:20;20.00;99.90
17423;DHT22;8829;47.932;7.810;2023-08-30T09:51:51;19.90;99.90
17423;DHT22;8829;47.932;7.810;2023-08-30T09:54:19;19.80;99.90
17423;DHT22;8829;47.932;7.810;2023-08-30T09:56:46;19.50;99.90
17423;DHT22;8829;47.932;7.810;2023-08-30T09:59:15;19.50;99.90
17423;DHT22;8829;47.932;7.810;2023-08-30T10:01:43;19.30;99.90
17423;DHT22;8829;47.932;7.810;2023-08-30T10:04:11;19.20;99.90
17423;DHT22;8829;47.932;7.810;2023-08-30T10:06:38;19.10;99.90
17423;DHT22;8829;47.932;7.810;2023-08-30T10:09:07;19.10;99.90
17423;DHT22;8829;47.932;7.810;2023-08-30T10:11:35;19.10;99.90
17423;DHT22;8829;47.932;7.810;2023-08-30T10:14:03;19.10;99.90
17423;DHT22;8829;47.932;7.810;2023-08-30T10:16:37;19.20;99.90
17423;DHT22;8829;47.932;7.810;2023-08-30T10:19:10;21.60;99.90
17423;DHT22;8829;47.932;7.810;2023-08-30T10:21:38;19.50;99.90
17423;DHT22;8829;47.932;7.810;2023-08-30T10:24:07;19.70;99.90
17423;DHT22;8829;47.932;7.810;2023-08-30T10:26:35;19.70;99.90
17423;DHT22;8829;47.932;7.810;2023-08-30T10:29:03;19.80;99.90
17423;DHT22;8829;47.932;7.810;2023-08-30T10:31:30;19.80;99.90
17423;DHT22;8829;47.932;7.810;2023-08-30T10:33:57;19.80;99.90
17423;DHT22;8829;47.932;7.810;2023-08-30T10:36:26;19.90;99.90
17423;DHT22;8829;47.932;7.810;2023-08-30T10:38:54;19.90;99.90
17423;DHT22;8829;47.932;7.810;2023-08-30T10:41:21;19.70;99.90
17423;DHT22;8829;47.932;7.810;2023-08-30T10:43:50;19.80;99.90
17423;DHT22;8829;47.932;7.810;2023-08-30T10:46:29;19.80;99.90
17423;DHT22;8829;47.932;7.810;2023-08-30T10:48:56;19.90;99.90
17423;DHT22;8829;47.932;7.810;2023-08-30T10:51:37;19.80;99.90
17423;DHT22;8829;47.932;7.810;2023-08-30T10:54:10;19.70;99.90
17423;DHT22;8829;47.932;7.810;2023-08-30T10:56:45;19.70;99.90
17423;DHT22;8829;47.932;7.810;2023-08-30T10:59:16;19.80;99.90
17423;DHT22;8829;47.932;7.810;2023-08-30T11:01:43;20.00;99.90
17423;DHT22;8829;47.932;7.810;2023-08-30T11:04:10;19.90;99.90
17423;DHT22;8829;47.932;7.810;2023-08-30T11:06:40;19.70;99.90
17423;DHT22;8829;47.932;7.810;2023-08-30T11:09:07;19.60;99.90
17423;DHT22;8829;47.932;7.810;2023-08-30T11:11:36;19.60;99.90
17423;DHT22;8829;47.932;7.810;2023-08-30T11:14:06;19.60;99.90
17423;DHT22;8829;47.932;7.810;2023-08-30T11:16:33;19.60;99.90
17423;DHT22;8829;47.932;7.810;2023-08-30T11:19:01;19.50;99.90
17423;DHT22;8829;47.932;7.810;2023-08-30T11:21:28;19.60;99.90
17423;DHT22;8829;47.932;7.810;2023-08-30T11:23:57;19.60;99.90
17423;DHT22;8829;47.932;7.810;2023-08-30T11:26:23;19.60;99.90
17423;DHT22;8829;47.932;7.810;2023-08-30T11:28:50;19.70;99.90
17423;DHT22;8829;47.932;7.810;2023-08-30T11:31:19;19.80;99.90
17423;DHT22;8829;47.932;7.810;2023-08-30T11:33:51;19.90;99.90
17423;DHT22;8829;47.932;7.810;2023-08-30T11:36:19;20.00;99.90
17423;DHT22;8829;47.932;7.810;2023-08-30T11:38:46;20.00;99.90
17423;DHT22;8829;47.932;7.810;2023-08-30T11:41:14;20.00;99.90
17423;DHT22;8829;47.932;7.810;2023-08-30T11:43:41;20.20;99.90
17423;DHT22;8829;47.932;7.810;2023-08-30T11:46:08;20.20;99.90
17423;DHT22;8829;47.932;7.810;2023-08-30T11:48:35;20.20;99.90
17423;DHT22;8829;47.932;7.810;2023-08-30T11:51:02;20.20;99.90
17423;DHT22;8829;47.932;7.810;2023-08-30T11:53:29;20.30;99.90
17423;DHT22;8829;47.932;7.810;2023-08-30T11:55:56;20.30;99.90
17423;DHT22;8829;47.932;7.810;2023-08-30T11:58:24;20.20;99.90
17423;DHT22;8829;47.932;7.810;2023-08-30T12:00:52;20.30;99.90
17423;DHT22;8829;47.932;7.810;2023-08-30T12:03:20;20.30;99.90
17423;DHT22;8829;47.932;7.810;2023-08-30T12:05:47;20.40;99.90
17423;DHT22;8829;47.932;7.810;2023-08-30T12:08:20;20.30;99.90
17423;DHT22;8829;47.932;7.810;2023-08-30T12:10:47;20.40;99.90
17423;DHT22;8829;47.932;7.810;2023-08-30T12:13:21;20.40;99.90
17423;DHT22;8829;47.932;7.810;2023-08-30T12:15:49;20.40;99.90
17423;DHT22;8829;47.932;7.810;2023-08-30T12:18:16;20.40;99.90
17423;DHT22;8829;47.932;7.810;2023-08-30T12:20:54;20.30;99.90
17423;DHT22;8829;47.932;7.810;2023-08-30T12:23:22;20.30;99.90
17423;DHT22;8829;47.932;7.810;2023-08-30T12:25:59;20.20;99.90
17423;DHT22;8829;47.932;7.810;2023-08-30T12:28:26;20.20;99.90
17423;DHT22;8829;47.932;7.810;2023-08-30T12:30:54;20.30;99.90
17423;DHT22;8829;47.932;7.810;2023-08-30T12:33:21;20.30;99.90
17423;DHT22;8829;47.932;7.810;2023-08-30T12:35:48;20.20;99.90
17423;DHT22;8829;47.932;7.810;2023-08-30T12:38:15;20.30;99.90
17423;DHT22;8829;47.932;7.810;2023-08-30T12:40:44;20.10;99.90
17423;DHT22;8829;47.932;7.810;2023-08-30T12:43:11;20.30;99.90
17423;DHT22;8829;47.932;7.810;2023-08-30T12:45:38;20.30;99.90
17423;DHT22;8829;47.932;7.810;2023-08-30T12:48:07;20.50;99.90
17423;DHT22;8829;47.932;7.810;2023-08-30T12:50:35;20.60;99.90
17423;DHT22;8829;47.932;7.810;2023-08-30T12:53:02;20.70;99.90
17423;DHT22;8829;47.932;7.810;2023-08-30T12:55:29;20.80;99.90
17423;DHT22;8829;47.932;7.810;2023-08-30T12:57:56;20.80;99.90
17423;DHT22;8829;47.932;7.810;2023-08-30T13:00:23;20.80;99.90
17423;DHT22;8829;47.932;7.810;2023-08-30T13:02:50;21.00;99.90
17423;DHT22;8829;47.932;7.810;2023-08-30T13:05:19;21.20;99.90
17423;DHT22;8829;47.932;7.810;2023-08-30T13:07:46;21.30;99.90
17423;DHT22;8829;47.932;7.810;2023-08-30T13:10:13;21.30;99.90
17423;DHT22;8829;47.932;7.810;2023-08-30T13:12:40;21.40;99.90
17423;DHT22;8829;47.932;7.810;2023-08-30T13:15:08;21.40;99.90
17423;DHT22;8829;47.932;7.810;2023-08-30T13:17:35;21.60;99.90
17423;DHT22;8829;47.932;7.810;2023-08-30T13:20:02;21.60;99.90
17423;DHT22;8829;47.932;7.810;2023-08-30T13:22:31;21.60;99.90
17423;DHT22;8829;47.932;7.810;2023-08-30T13:24:58;21.50;99.90
17423;DHT22;8829;47.932;7.810;2023-08-30T13:27:25;21.30;99.90
17423;DHT22;8829;47.932;7.810;2023-08-30T13:29:52;21.40;99.90
17423;DHT22;8829;47.932;7.810;2023-08-30T13:32:18;21.60;99.90
17423;DHT22;8829;47.932;7.810;2023-08-30T13:34:45;21.60;99.90
17423;DHT22;8829;47.932;7.810;2023-08-30T13:37:12;21.40;99.90
17423;DHT22;8829;47.932;7.810;2023-08-30T13:39:40;21.40;99.90
17423;DHT22;8829;47.932;7.810;2023-08-30T13:42:07;21.40;99.90
17423;DHT22;8829;47.932;7.810;2023-08-30T13:44:35;21.50;99.90
17423;DHT22;8829;47.932;7.810;2023-08-30T13:47:03;21.50;99.90
17423;DHT22;8829;47.932;7.810;2023-08-30T13:49:30;21.60;99.90
17423;DHT22;8829;47.932;7.810;2023-08-30T13:51:57;21.50;99.90
17423;DHT22;8829;47.932;7.810;2023-08-30T13:54:24;21.30;99.90
17423;DHT22;8829;47.932;7.810;2023-08-30T13:56:53;21.30;99.90
17423;DHT22;8829;47.932;7.810;2023-08-30T13:59:19;21.30;99.90
17423;DHT22;8829;47.932;7.810;2023-08-30T14:01:46;21.10;99.90
17423;DHT22;8829;47.932;7.810;2023-08-30T14:04:13;21.20;99.90
17423;DHT22;8829;47.932;7.810;2023-08-30T14:06:40;21.20;99.90
17423;DHT22;8829;47.932;7.810;2023-08-30T14:09:06;21.10;99.90
17423;DHT22;8829;47.932;7.810;2023-08-30T14:11:34;20.90;99.90
17423;DHT22;8829;47.932;7.810;2023-08-30T14:14:04;20.80;99.90
17423;DHT22;8829;47.932;7.810;2023-08-30T14:16:31;21.00;99.90
17423;DHT22;8829;47.932;7.810;2023-08-30T14:18:58;20.90;99.90
17423;DHT22;8829;47.932;7.810;2023-08-30T14:21:25;20.90;99.90
17423;DHT22;8829;47.932;7.810;2023-08-30T14:23:53;21.00;99.90
17423;DHT22;8829;47.932;7.810;2023-08-30T14:26:20;20.90;99.90
17423;DHT22;8829;47.932;7.810;2023-08-30T14:28:46;20.90;99.90
17423;DHT22;8829;47.932;7.810;2023-08-30T14:31:14;21.10;99.90
17423;DHT22;8829;47.932;7.810;2023-08-30T14:33:43;21.10;99.90
17423;DHT22;8829;47.932;7.810;2023-08-30T14:36:11;21.10;99.90
17423;DHT22;8829;47.932;7.810;2023-08-30T14:38:40;20.90;99.90
17423;DHT22;8829;47.932;7.810;2023-08-30T14:41:07;20.90;99.90
17423;DHT22;8829;47.932;7.810;2023-08-30T14:43:33;21.00;99.90
17423;DHT22;8829;47.932;7.810;2023-08-30T14:46:00;20.80;99.90
17423;DHT22;8829;47.932;7.810;2023-08-30T14:48:29;20.70;99.90
17423;DHT22;8829;47.932;7.810;2023-08-30T14:50:57;20.70;99.90
17423;DHT22;8829;47.932;7.810;2023-08-30T14:53:24;20.80;99.90
17423;DHT22;8829;47.932;7.810;2023-08-30T14:55:51;20.70;99.90
17423;DHT22;8829;47.932;7.810;2023-08-30T14:58:17;19.70;99.90
17423;DHT22;8829;47.932;7.810;2023-08-30T15:00:47;21.00;99.90
17423;DHT22;8829;47.932;7.810;2023-08-30T15:03:13;20.90;99.90
17423;DHT22;8829;47.932;7.810;2023-08-30T15:05:41;21.00;99.90
17423;DHT22;8829;47.932;7.810;2023-08-30T15:08:08;20.80;99.90
17423;DHT22;8829;47.932;7.810;2023-08-30T15:10:35;20.60;99.90
17423;DHT22;8829;47.932;7.810;2023-08-30T15:13:02;20.60;99.90
17423;DHT22;8829;47.932;7.810;2023-08-30T15:15:28;20.70;99.90
17423;DHT22;8829;47.932;7.810;2023-08-30T15:17:56;20.70;99.90
17423;DHT22;8829;47.932;7.810;2023-08-30T15:20:23;20.70;99.90
17423;DHT22;8829;47.932;7.810;2023-08-30T15:22:52;20.70;99.90
17423;DHT22;8829;47.932;7.810;2023-08-30T15:25:18;20.80;99.90
17423;DHT22;8829;47.932;7.810;2023-08-30T15:27:45;20.90;99.90
17423;DHT22;8829;47.932;7.810;2023-08-30T15:30:13;21.00;99.90
17423;DHT22;8829;47.932;7.810;2023-08-30T15:32:39;21.00;99.90
17423;DHT22;8829;47.932;7.810;2023-08-30T15:35:08;21.10;99.90
17423;DHT22;8829;47.932;7.810;2023-08-30T15:37:35;21.20;99.90
17423;DHT22;8829;47.932;7.810;2023-08-30T15:40:04;20.90;99.90
17423;DHT22;8829;47.932;7.810;2023-08-30T15:42:31;20.80;99.90
17423;DHT22;8829;47.932;7.810;2023-08-30T15:44:57;20.80;99.90
17423;DHT22;8829;47.932;7.810;2023-08-30T15:47:24;20.70;99.90
17423;DHT22;8829;47.932;7.810;2023-08-30T15:49:52;20.70;99.90
17423;DHT22;8829;47.932;7.810;2023-08-30T15:52:18;20.60;99.90